createdAt,value
2018-10-06T00:00:22.134Z,15.97
2018-10-06T00:02:51.777Z,9.43
2018-10-06T00:05:22.294Z,10.40
2018-10-06T00:07:52.116Z,13.77
2018-10-06T00:10:23.262Z,13.43
2018-10-06T00:12:53.264Z,11.53
2018-10-06T00:15:22.809Z,12.27
2018-10-06T00:17:52.264Z,13.83
2018-10-06T00:20:21.882Z,15.30
2018-10-06T00:22:51.788Z,12.93
2018-10-06T00:25:21.594Z,13.90
2018-10-06T00:27:51.112Z,14.50
2018-10-06T00:30:20.802Z,15.47
2018-10-06T00:32:56.964Z,12.13
2018-10-06T00:35:26.502Z,12.43
2018-10-06T00:37:56.282Z,14.60
2018-10-06T00:40:25.688Z,13.10
2018-10-06T00:42:56.754Z,13.23
2018-10-06T00:45:26.748Z,13.50
2018-10-06T00:47:56.757Z,10.60
2018-10-06T00:50:26.560Z,11.70
2018-10-06T00:52:56.345Z,11.27
2018-10-06T00:55:25.979Z,14.90
2018-10-06T00:57:55.891Z,11.47
2018-10-06T01:00:25.702Z,12.37
2018-10-06T01:02:56.540Z,13.17
2018-10-06T01:05:25.941Z,13.43
2018-10-06T01:07:56.984Z,12.30
2018-10-06T01:10:30.375Z,15.17
2018-10-06T01:13:01.939Z,10.73
2018-10-06T01:15:31.665Z,14.43
2018-10-06T01:18:01.338Z,12.13
2018-10-06T01:20:31.298Z,10.33
2018-10-06T01:23:01.557Z,13.97
2018-10-06T01:25:31.394Z,13.70
2018-10-06T01:28:01.970Z,12.77
2018-10-06T01:30:47.143Z,13.50
2018-10-06T01:33:18.962Z,15.97
2018-10-06T01:35:50.986Z,14.80
2018-10-06T01:38:21.135Z,13.73
2018-10-06T01:40:51.578Z,14.80
2018-10-06T01:43:21.183Z,10.37
2018-10-06T01:45:50.774Z,13.63
2018-10-06T01:48:21.481Z,10.80
2018-10-06T01:50:52.080Z,13.93
2018-10-06T01:53:22.309Z,15.17
2018-10-06T01:55:51.973Z,16.03
2018-10-06T01:58:22.293Z,13.90
2018-10-06T02:00:51.716Z,13.20
2018-10-06T02:03:21.220Z,12.27
2018-10-06T02:05:50.726Z,12.80
2018-10-06T02:08:22.257Z,15.90
2018-10-06T02:10:51.883Z,15.50
2018-10-06T02:13:22.215Z,12.13
2018-10-06T02:16:00.039Z,13.33
2018-10-06T02:21:46.812Z,12.17
2018-10-06T02:24:21.819Z,11.60
2018-10-06T02:26:58.120Z,13.60
2018-10-06T02:29:32.513Z,15.03
2018-10-06T02:32:02.429Z,14.13
2018-10-06T02:34:32.370Z,12.90
2018-10-06T02:37:01.898Z,14.60
2018-10-06T02:39:31.359Z,13.57
2018-10-06T02:42:01.211Z,15.50
2018-10-06T02:44:31.128Z,12.83
2018-10-06T02:47:00.588Z,14.53
2018-10-06T02:49:29.933Z,14.83
2018-10-06T02:51:59.447Z,12.60
2018-10-06T02:54:28.904Z,15.00
2018-10-06T02:56:59.178Z,13.10
2018-10-06T02:59:28.845Z,13.27
2018-10-06T03:01:58.321Z,10.83
2018-10-06T03:04:28.442Z,13.00
2018-10-06T03:06:58.007Z,10.77
2018-10-06T03:09:27.461Z,12.20
2018-10-06T03:11:56.854Z,10.33
2018-10-06T03:14:26.356Z,15.40
2018-10-06T03:16:55.888Z,12.10
2018-10-06T03:19:25.633Z,13.10
2018-10-06T03:21:55.029Z,11.30
2018-10-06T03:24:25.857Z,10.77
2018-10-06T03:26:55.849Z,11.70
2018-10-06T03:29:26.781Z,17.07
2018-10-06T03:31:56.180Z,14.57
2018-10-06T03:34:25.576Z,14.17
2018-10-06T03:36:55.152Z,13.37
2018-10-06T03:39:24.679Z,10.43
2018-10-06T03:41:54.037Z,11.40
2018-10-06T03:44:24.209Z,11.47
2018-10-06T03:46:54.308Z,11.70
2018-10-06T03:49:24.755Z,12.90
2018-10-06T03:51:54.174Z,12.37
2018-10-06T03:54:23.775Z,13.93
2018-10-06T03:56:53.155Z,13.83
2018-10-06T03:59:22.859Z,11.83
2018-10-06T04:01:52.180Z,14.83
2018-10-06T04:04:21.659Z,13.67
2018-10-06T04:06:51.643Z,15.40
2018-10-06T04:09:21.932Z,12.83
2018-10-06T04:11:51.307Z,14.20
2018-10-06T04:14:22.065Z,13.93
2018-10-06T04:16:51.757Z,10.77
2018-10-06T04:19:21.600Z,14.20
2018-10-06T04:21:52.744Z,12.10
2018-10-06T04:24:25.993Z,12.60
2018-10-06T04:26:56.249Z,10.67
2018-10-06T04:29:27.010Z,12.50
2018-10-06T04:31:56.504Z,11.53
2018-10-06T04:34:26.256Z,12.00
2018-10-06T04:36:56.298Z,12.57
2018-10-06T04:39:27.562Z,12.40
2018-10-06T04:41:58.001Z,13.37
2018-10-06T04:44:28.225Z,12.70
2018-10-06T04:46:57.820Z,13.17
2018-10-06T04:49:28.047Z,11.13
2018-10-06T04:51:57.451Z,11.73
2018-10-06T04:54:27.349Z,12.10
2018-10-06T04:56:57.707Z,11.73
2018-10-06T04:59:27.388Z,12.60
2018-10-06T05:01:57.206Z,10.37
2018-10-06T05:04:26.953Z,14.43
2018-10-06T05:06:56.586Z,12.33
2018-10-06T05:09:26.247Z,11.10
2018-10-06T05:11:55.968Z,12.13
2018-10-06T05:14:26.373Z,16.50
2018-10-06T05:16:56.424Z,10.30
2018-10-06T05:19:26.486Z,13.43
2018-10-06T05:21:56.447Z,14.07
2018-10-06T05:24:26.060Z,11.50
2018-10-06T05:26:55.665Z,12.87
2018-10-06T05:29:25.260Z,13.00
2018-10-06T05:31:55.135Z,14.17
2018-10-06T05:34:25.409Z,15.33
2018-10-06T05:36:55.506Z,12.23
2018-10-06T05:39:25.837Z,13.17
2018-10-06T05:41:56.744Z,10.30
2018-10-06T05:44:27.536Z,11.43
2018-10-06T05:46:57.625Z,11.20
2018-10-06T05:49:28.408Z,12.47
2018-10-06T05:51:58.907Z,12.87
2018-10-06T05:54:29.038Z,14.20
2018-10-06T05:56:59.682Z,12.87
2018-10-06T05:59:31.595Z,13.07
2018-10-06T06:02:02.210Z,12.03
2018-10-06T06:04:33.829Z,12.23
2018-10-06T06:07:04.054Z,15.73
2018-10-06T06:09:34.278Z,10.97
2018-10-06T06:12:04.241Z,10.60
2018-10-06T06:14:35.336Z,11.60
2018-10-06T06:17:05.040Z,12.13
2018-10-06T06:19:36.963Z,11.57
2018-10-06T06:22:07.083Z,11.10
2018-10-06T06:24:38.037Z,12.90
2018-10-06T06:27:08.713Z,10.50
2018-10-06T06:29:38.805Z,13.57
2018-10-06T06:32:10.278Z,11.40
2018-10-06T06:34:40.377Z,12.17
2018-10-06T06:37:10.796Z,11.43
2018-10-06T06:39:40.545Z,10.30
2018-10-06T06:42:11.951Z,10.17
2018-10-06T06:44:41.771Z,10.07
2018-10-06T06:47:11.692Z,10.63
2018-10-06T06:49:41.817Z,14.03
2018-10-06T06:52:13.272Z,9.70
2018-10-06T06:54:44.866Z,10.40
2018-10-06T06:57:14.645Z,12.30
2018-10-06T06:59:44.560Z,14.83
2018-10-06T07:02:14.130Z,12.00
2018-10-06T07:04:43.649Z,14.60
2018-10-06T07:07:13.161Z,12.27
2018-10-06T07:09:42.524Z,11.87
2018-10-06T07:12:12.304Z,14.10
2018-10-06T07:14:42.126Z,10.10
2018-10-06T07:17:12.762Z,13.17
2018-10-06T07:19:42.150Z,13.40
2018-10-06T07:22:12.536Z,13.03
2018-10-06T07:24:42.248Z,11.57
2018-10-06T07:27:12.647Z,9.73
2018-10-06T07:29:42.338Z,11.53
2018-10-06T07:32:12.058Z,11.43
2018-10-06T07:34:41.668Z,13.60
2018-10-06T07:37:11.888Z,9.43
2018-10-06T07:39:42.925Z,8.37
2018-10-06T07:42:13.409Z,9.43
2018-10-06T07:44:44.119Z,10.60
2018-10-06T07:47:13.991Z,8.30
2018-10-06T07:49:43.757Z,11.60
2018-10-06T07:52:13.564Z,9.50
2018-10-06T07:54:43.555Z,8.50
2018-10-06T07:57:12.996Z,7.93
2018-10-06T07:59:42.746Z,11.33
2018-10-06T08:02:13.513Z,9.93
2018-10-06T08:04:43.571Z,7.47
2018-10-06T08:07:12.979Z,9.20
2018-10-06T08:09:43.546Z,10.90
2018-10-06T08:12:15.290Z,12.10
2018-10-06T08:14:45.233Z,9.93
2018-10-06T08:17:14.902Z,7.03
2018-10-06T08:19:46.104Z,8.80
2018-10-06T08:22:15.687Z,9.13
2018-10-06T08:24:45.272Z,8.07
2018-10-06T08:27:16.155Z,9.10
2018-10-06T08:29:46.520Z,11.80
2018-10-06T08:32:16.207Z,10.60
2018-10-06T08:34:45.909Z,10.87
2018-10-06T08:37:15.303Z,9.93
2018-10-06T08:39:45.100Z,8.17
2018-10-06T08:42:14.606Z,7.27
2018-10-06T08:44:45.129Z,7.80
2018-10-06T08:47:14.936Z,10.27
2018-10-06T08:49:45.232Z,8.53
2018-10-06T08:52:14.953Z,8.97
2018-10-06T08:54:44.595Z,7.63
2018-10-06T08:57:15.657Z,8.87
2018-10-06T08:59:45.640Z,8.27
2018-10-06T09:02:16.073Z,7.63
2018-10-06T09:04:45.771Z,7.60
2018-10-06T09:07:15.746Z,10.27
2018-10-06T09:09:46.956Z,7.77
2018-10-06T09:12:16.678Z,9.53
2018-10-06T09:14:47.331Z,7.97
2018-10-06T09:17:17.749Z,7.70
2018-10-06T09:19:47.622Z,7.43
2018-10-06T09:22:17.967Z,7.17
2018-10-06T09:27:27.341Z,6.93
2018-10-06T09:29:57.838Z,8.00
2018-10-06T09:32:27.144Z,6.70
2018-10-06T09:34:57.364Z,8.00
2018-10-06T09:37:27.060Z,9.73
2018-10-06T09:39:57.184Z,8.47
2018-10-06T09:42:27.366Z,9.50
2018-10-06T09:44:57.009Z,10.20
2018-10-06T09:47:26.520Z,7.17
2018-10-06T09:49:56.203Z,9.20
2018-10-06T09:52:26.225Z,8.50
2018-10-06T09:54:55.719Z,10.93
2018-10-06T09:57:25.025Z,7.57
2018-10-06T09:59:54.431Z,5.87
2018-10-06T10:02:28.994Z,6.93
2018-10-06T10:05:03.800Z,5.63
2018-10-06T10:07:35.035Z,8.43
2018-10-06T10:10:05.345Z,8.67
2018-10-06T10:12:34.934Z,6.87
2018-10-06T10:15:04.868Z,7.53
2018-10-06T10:17:34.517Z,6.50
2018-10-06T10:20:03.785Z,8.67
2018-10-06T10:22:33.275Z,9.83
2018-10-06T10:25:03.000Z,10.87
2018-10-06T10:27:32.627Z,6.10
2018-10-06T10:30:02.715Z,7.37
2018-10-06T10:32:32.486Z,9.30
2018-10-06T10:35:02.777Z,6.83
2018-10-06T10:37:34.413Z,6.47
2018-10-06T10:40:03.900Z,6.03
2018-10-06T10:42:33.518Z,5.97
2018-10-06T10:45:03.260Z,6.70
2018-10-06T10:47:32.583Z,8.77
2018-10-06T10:50:02.640Z,6.13
2018-10-06T10:52:32.064Z,9.53
2018-10-06T10:55:01.774Z,6.90
2018-10-06T10:57:31.459Z,7.20
2018-10-06T11:00:02.062Z,8.23
2018-10-06T11:02:31.370Z,5.70
2018-10-06T11:05:00.824Z,7.87
2018-10-06T11:07:30.182Z,5.77
2018-10-06T11:10:00.328Z,5.00
2018-10-06T11:12:29.702Z,5.50
2018-10-06T11:14:59.207Z,7.67
2018-10-06T11:17:29.626Z,9.70
2018-10-06T11:19:59.017Z,5.87
2018-10-06T11:22:28.479Z,6.13
2018-10-06T11:24:57.972Z,8.17
2018-10-06T11:27:27.937Z,4.20
2018-10-06T11:29:58.254Z,4.60
2018-10-06T11:32:29.685Z,7.13
2018-10-06T11:35:03.559Z,6.93
2018-10-06T11:37:33.786Z,10.70
2018-10-06T11:40:08.657Z,7.10
2018-10-06T11:42:38.961Z,5.67
2018-10-06T11:45:08.756Z,6.33
2018-10-06T11:47:38.120Z,8.80
2018-10-06T11:50:07.586Z,6.13
2018-10-06T11:52:37.006Z,9.10
2018-10-06T11:55:06.467Z,7.87
2018-10-06T11:57:36.442Z,4.43
2018-10-06T12:00:07.237Z,8.63
2018-10-06T12:02:36.981Z,7.83
2018-10-06T12:05:06.838Z,5.47
2018-10-06T12:07:36.395Z,7.33
2018-10-06T12:10:06.436Z,8.45
2018-10-06T12:12:35.894Z,5.78
2018-10-06T12:15:06.943Z,5.78
2018-10-06T12:17:36.520Z,6.47
2018-10-06T12:20:07.336Z,7.00
2018-10-06T12:22:36.858Z,8.35
2018-10-06T12:25:06.626Z,7.53
2018-10-06T12:27:37.262Z,5.28
2018-10-06T12:30:07.023Z,6.30
2018-10-06T12:32:36.547Z,4.55
2018-10-06T12:35:07.413Z,5.80
2018-10-06T12:37:37.262Z,5.30
2018-10-06T12:40:06.749Z,6.17
2018-10-06T12:42:36.083Z,7.12
2018-10-06T12:45:08.161Z,9.75
2018-10-06T12:47:37.923Z,4.80
2018-10-06T12:50:07.668Z,6.05
2018-10-06T12:52:37.320Z,4.72
2018-10-06T12:55:07.344Z,6.05
2018-10-06T12:57:37.135Z,8.08
2018-10-06T13:00:07.483Z,6.12
2018-10-06T13:02:37.457Z,23.10
2018-10-06T13:05:07.335Z,5.65
2018-10-06T13:07:37.511Z,8.63
2018-10-06T13:10:07.086Z,7.30
2018-10-06T13:12:36.688Z,2.80
2018-10-06T13:15:07.012Z,4.72
2018-10-06T13:17:36.576Z,7.17
2018-10-06T13:20:06.921Z,6.12
2018-10-06T13:22:37.451Z,10.13
2018-10-06T13:25:06.899Z,27.60
2018-10-06T13:27:38.617Z,6.47
2018-10-06T13:30:08.247Z,5.22
2018-10-06T13:32:37.749Z,4.58
2018-10-06T13:35:08.284Z,4.50
2018-10-06T13:37:39.229Z,6.90
2018-10-06T13:40:10.273Z,8.15
2018-10-06T13:42:39.775Z,3.22
2018-10-06T13:45:10.805Z,9.08
2018-10-06T13:47:40.299Z,8.03
2018-10-06T13:50:10.886Z,7.55
2018-10-06T13:52:40.638Z,25.75
2018-10-06T13:55:10.671Z,8.38
2018-10-06T13:57:40.293Z,6.47
2018-10-06T14:00:10.950Z,3.92
2018-10-06T14:02:41.487Z,8.10
2018-10-06T14:05:11.133Z,8.43
2018-10-06T14:07:40.855Z,5.12
2018-10-06T14:10:10.458Z,5.70
2018-10-06T14:12:46.006Z,5.33
2018-10-06T14:15:16.958Z,5.70
2018-10-06T14:17:47.565Z,5.45
2018-10-06T14:20:17.592Z,6.60
2018-10-06T14:22:47.999Z,9.03
2018-10-06T14:25:17.694Z,6.00
2018-10-06T14:27:47.592Z,41.10
2018-10-06T14:30:18.520Z,7.00
2018-10-06T14:32:49.159Z,8.40
2018-10-06T14:35:18.565Z,6.97
2018-10-06T14:37:48.092Z,6.87
2018-10-06T14:40:17.596Z,7.03
2018-10-06T14:42:47.063Z,9.75
2018-10-06T14:45:16.520Z,4.67
2018-10-06T14:47:46.169Z,8.85
2018-10-06T14:50:16.736Z,7.40
2018-10-06T14:52:46.535Z,6.08
2018-10-06T14:55:18.763Z,5.72
2018-10-06T14:57:48.495Z,6.47
2018-10-06T15:00:18.069Z,7.53
2018-10-06T15:02:48.683Z,5.37
2018-10-06T15:05:19.151Z,5.73
2018-10-06T15:07:48.796Z,7.45
2018-10-06T15:10:19.557Z,6.80
2018-10-06T15:12:48.892Z,4.57
2018-10-06T15:15:19.307Z,6.03
2018-10-06T15:17:49.814Z,9.65
2018-10-06T15:20:19.277Z,8.95
2018-10-06T15:22:48.820Z,7.20
2018-10-06T15:25:19.299Z,5.85
2018-10-06T15:27:49.336Z,4.70
2018-10-06T15:30:18.949Z,4.47
2018-10-06T15:32:48.277Z,6.05
2018-10-06T15:35:18.246Z,6.40
2018-10-06T15:37:47.764Z,10.18
2018-10-06T15:40:17.335Z,5.47
2018-10-06T15:42:46.932Z,7.00
2018-10-06T15:45:16.603Z,6.58
2018-10-06T15:47:46.591Z,9.43
2018-10-06T15:50:16.249Z,5.73
2018-10-06T15:52:48.018Z,9.13
2018-10-06T15:55:17.832Z,5.67
2018-10-06T15:57:52.033Z,5.43
2018-10-06T16:00:22.180Z,6.87
2018-10-06T16:02:51.653Z,5.23
2018-10-06T16:05:20.945Z,6.27
2018-10-06T16:07:50.482Z,5.23
2018-10-06T16:10:20.365Z,4.33
2018-10-06T16:12:50.608Z,5.90
2018-10-06T16:15:20.157Z,5.43
2018-10-06T16:17:50.819Z,6.03
2018-10-06T16:20:20.231Z,6.33
2018-10-06T16:22:49.610Z,5.83
2018-10-06T16:25:19.042Z,5.60
2018-10-06T16:27:48.542Z,6.93
2018-10-06T16:30:18.098Z,6.17
2018-10-06T16:32:48.314Z,6.63
2018-10-06T16:35:19.967Z,3.90
2018-10-06T16:37:49.920Z,7.40
2018-10-06T16:40:19.548Z,7.00
2018-10-06T16:42:49.113Z,8.23
2018-10-06T16:45:19.153Z,6.63
2018-10-06T16:47:48.678Z,6.17
2018-10-06T16:50:18.063Z,8.37
2018-10-06T16:52:47.569Z,7.97
2018-10-06T16:55:16.986Z,4.23
2018-10-06T16:57:46.589Z,8.13
2018-10-06T17:00:17.055Z,7.33
2018-10-06T17:02:46.481Z,7.30
2018-10-06T17:05:16.136Z,6.43
2018-10-06T17:07:45.855Z,7.80
2018-10-06T17:10:15.825Z,8.93
2018-10-06T17:12:45.706Z,5.80
2018-10-06T17:15:15.194Z,10.60
2018-10-06T17:17:44.640Z,6.63
2018-10-06T17:20:14.989Z,7.97
2018-10-06T17:22:44.769Z,6.27
2018-10-06T17:25:16.479Z,7.83
2018-10-06T17:27:46.276Z,5.73
2018-10-06T17:30:16.286Z,6.20
2018-10-06T17:32:45.980Z,9.03
2018-10-06T17:35:15.451Z,9.80
2018-10-06T17:37:45.091Z,5.37
2018-10-06T17:40:15.615Z,5.80
2018-10-06T17:42:44.960Z,5.47
2018-10-06T17:45:14.740Z,7.50
2018-10-06T17:47:44.504Z,6.77
2018-10-06T17:50:14.284Z,6.90
2018-10-06T17:52:43.923Z,7.10
2018-10-06T17:55:13.406Z,9.40
2018-10-06T17:57:43.077Z,7.73
2018-10-06T18:00:14.582Z,8.43
2018-10-06T18:02:45.201Z,5.30
2018-10-06T18:05:16.903Z,5.53
2018-10-06T18:07:50.682Z,6.50
2018-10-06T18:10:22.007Z,8.43
2018-10-06T18:12:53.991Z,7.93
2018-10-06T18:15:23.972Z,7.80
2018-10-06T18:17:54.131Z,4.93
2018-10-06T18:20:23.693Z,8.57
2018-10-06T18:22:53.432Z,5.47
2018-10-06T18:25:23.835Z,10.83
2018-10-06T18:27:53.549Z,13.30
2018-10-06T18:30:23.851Z,13.33
2018-10-06T18:32:54.568Z,14.33
2018-10-06T18:35:28.939Z,12.80
2018-10-06T18:38:00.429Z,19.00
2018-10-06T18:40:30.657Z,15.80
2018-10-06T18:43:00.650Z,22.07
2018-10-06T18:45:32.528Z,18.83
2018-10-06T18:48:04.393Z,16.70
2018-10-06T18:50:37.149Z,18.70
2018-10-06T18:53:09.338Z,14.37
2018-10-06T18:55:41.110Z,13.80
2018-10-06T18:58:14.593Z,11.33
2018-10-06T19:00:47.643Z,10.17
2018-10-06T19:03:19.127Z,15.70
2018-10-06T19:05:51.994Z,11.03
2018-10-06T19:08:22.463Z,12.30
2018-10-06T19:10:55.958Z,13.03
2018-10-06T19:13:27.609Z,11.87
2018-10-06T19:15:57.179Z,11.67
2018-10-06T19:18:28.741Z,11.77
2018-10-06T19:21:03.876Z,13.00
2018-10-06T19:23:36.591Z,11.33
2018-10-06T19:26:07.157Z,14.57
2018-10-06T19:28:37.167Z,14.03
2018-10-06T19:31:06.602Z,13.80
2018-10-06T19:33:36.202Z,9.67
2018-10-06T19:36:05.694Z,14.60
2018-10-06T19:38:35.320Z,12.00
2018-10-06T19:41:06.824Z,11.73
2018-10-06T19:43:37.273Z,10.97
2018-10-06T19:46:07.871Z,13.23
2018-10-06T19:48:39.309Z,10.47
2018-10-06T19:51:11.219Z,15.10
2018-10-06T19:53:43.051Z,14.77
2018-10-06T19:56:14.048Z,10.70
2018-10-06T19:58:44.378Z,14.77
2018-10-06T20:01:16.163Z,12.47
2018-10-06T20:03:46.494Z,11.17
2018-10-06T20:06:17.240Z,12.03
2018-10-06T20:08:47.696Z,12.37
2018-10-06T20:11:17.960Z,11.23
2018-10-06T20:13:48.576Z,12.20
2018-10-06T20:16:19.615Z,16.57
2018-10-06T20:18:50.009Z,13.40
2018-10-06T20:21:20.609Z,12.30
2018-10-06T20:23:52.089Z,13.40
2018-10-06T20:26:22.992Z,13.70
2018-10-06T20:28:53.354Z,12.60
2018-10-06T20:31:24.188Z,15.10
2018-10-06T20:33:55.331Z,13.03
2018-10-06T20:36:26.439Z,19.50
2018-10-06T20:38:56.761Z,14.53
2018-10-06T20:41:27.154Z,16.73
2018-10-06T20:43:57.448Z,22.07
2018-10-06T20:46:28.294Z,17.33
2018-10-06T20:48:59.505Z,16.03
2018-10-06T20:51:29.689Z,14.30
2018-10-06T20:54:00.197Z,19.07
2018-10-06T20:56:30.563Z,15.03
2018-10-06T20:59:01.029Z,19.77
2018-10-06T21:01:30.786Z,19.87
2018-10-06T21:04:00.403Z,19.03
2018-10-06T21:06:30.472Z,19.87
2018-10-06T21:09:00.053Z,16.33
2018-10-06T21:11:29.506Z,20.93
2018-10-06T21:13:59.098Z,17.30
2018-10-06T21:16:28.955Z,18.57
2018-10-06T21:18:58.379Z,17.53
2018-10-06T21:21:27.861Z,19.40
2018-10-06T21:23:58.474Z,21.60
2018-10-06T21:26:27.902Z,14.93
2018-10-06T21:28:57.514Z,14.83
2018-10-06T21:31:27.052Z,15.80
2018-10-06T21:33:56.741Z,16.20
2018-10-06T21:36:26.216Z,11.60
2018-10-06T21:38:56.009Z,11.57
2018-10-06T21:41:25.414Z,12.27
2018-10-06T21:43:55.167Z,11.03
2018-10-06T21:46:25.050Z,13.43
2018-10-06T21:48:55.243Z,12.27
2018-10-06T21:51:24.628Z,14.50
2018-10-06T21:53:54.104Z,13.57
2018-10-06T21:56:23.367Z,12.73
2018-10-06T21:58:52.800Z,15.10
2018-10-06T22:01:22.675Z,16.67
2018-10-06T22:03:52.026Z,17.90
2018-10-06T22:06:21.561Z,20.60
2018-10-06T22:08:53.757Z,18.13
2018-10-06T22:11:23.960Z,17.57
2018-10-06T22:13:53.454Z,19.63
2018-10-06T22:16:23.939Z,18.27
2018-10-06T22:18:53.380Z,18.83
2018-10-06T22:21:22.974Z,19.67
2018-10-06T22:23:52.378Z,25.87
2018-10-06T22:26:21.988Z,24.97
2018-10-06T22:28:51.379Z,24.60
2018-10-06T22:31:20.775Z,29.10
2018-10-06T22:33:49.995Z,27.53
2018-10-06T22:36:19.963Z,24.90
2018-10-06T22:38:49.320Z,24.10
2018-10-06T22:41:19.358Z,26.40
2018-10-06T22:43:49.810Z,24.43
2018-10-06T22:46:19.260Z,27.07
2018-10-06T22:48:48.672Z,22.70
2018-10-06T22:51:18.133Z,29.03
2018-10-06T22:53:48.146Z,25.00
2018-10-06T22:56:17.646Z,28.73
2018-10-06T22:58:47.074Z,31.70
2018-10-06T23:01:17.169Z,35.20
2018-10-06T23:03:47.491Z,36.93
2018-10-06T23:06:17.043Z,35.67
2018-10-06T23:08:46.380Z,40.67
2018-10-06T23:11:15.847Z,36.63
2018-10-06T23:13:45.290Z,40.53
2018-10-06T23:16:14.690Z,41.47
2018-10-06T23:18:44.879Z,40.40
2018-10-06T23:21:14.241Z,46.57
2018-10-06T23:23:43.825Z,38.83
2018-10-06T23:26:13.343Z,40.23
2018-10-06T23:28:44.013Z,38.47
2018-10-06T23:31:13.517Z,38.50
2018-10-06T23:33:43.145Z,42.63
2018-10-06T23:36:12.535Z,42.07
2018-10-06T23:38:43.126Z,37.67
2018-10-06T23:41:12.698Z,47.43
2018-10-06T23:43:42.116Z,40.40
2018-10-06T23:46:11.747Z,43.97
2018-10-06T23:48:41.135Z,46.87
2018-10-06T23:51:10.540Z,44.30
2018-10-06T23:53:40.456Z,44.83
2018-10-06T23:56:09.918Z,42.87
2018-10-06T23:58:39.367Z,48.53
